Aviation Digital Data Service (ADDS)

Output produced by METARs form (1405 UTC 19 January 2019)
found at http://www.aviationweather.gov/metar/data/
 
METAR text: KMWH 191352Z 19004KT 1/2SM R32R/2200V2600FT FG VV002 03/03 A3002 RMK AO2 SLP175 T00330028
Conditions at: KMWH (MOSES LAKE , WA, US) observed 1352 UTC 19 January 2019
Temperature: 3.3°C (38°F)
Dewpoint: 2.8°C (37°F) [RH = 97%]
Pressure (altimeter): 30.02 inches Hg (1016.7 mb)
[Sea-level pressure: 1017.5 mb]
Winds: from the S (190 degrees) at 5 MPH (4 knots; 2.1 m/s)
Visibility: 0.50 miles (0.80 km)
Ceiling: indefinite ceiling with vertical visibility of 200 feet AGL
Clouds: obscured sky
Weather: FG  (fog)

METAR text: KMWH 191306Z AUTO 16003KT 3/4SM R32R/3500V4000FT BR VV003 04/03 A3001 RMK AO2 T00390033
Conditions at: KMWH (MOSES LAKE , WA, US) observed 1306 UTC 19 January 2019
Temperature: 3.9°C (39°F)
Dewpoint: 3.3°C (38°F) [RH = 96%]
Pressure (altimeter): 30.01 inches Hg (1016.3 mb)
Winds: from the SSE (160 degrees) at 3 MPH (3 knots; 1.5 m/s)
Visibility: 0.75 miles (1.21 km)
Ceiling: indefinite ceiling with vertical visibility of 300 feet AGL
Clouds: obscured sky
Weather: BR  (mist)

METAR text: KMWH 191252Z AUTO 00000KT 1 1/4SM R32R/5000VP6000FT BR OVC002 04/03 A3001 RMK AO2 SLP172 T00390033
Conditions at: KMWH (MOSES LAKE , WA, US) observed 1252 UTC 19 January 2019
Temperature: 3.9°C (39°F)
Dewpoint: 3.3°C (38°F) [RH = 96%]
Pressure (altimeter): 30.01 inches Hg (1016.3 mb)
[Sea-level pressure: 1017.2 mb]
Winds: calm
Visibility: 1.25 miles (2.01 km)
Ceiling: 200 feet AGL
Clouds: overcast cloud deck at 200 feet AGL
Weather: BR  (mist)

METAR text: KMWH 191249Z AUTO 00000KT 1 1/4SM R32R/5000VP6000FT BR OVC002 04/03 A3001 RMK AO2
Conditions at: KMWH (MOSES LAKE , WA, US) observed 1249 UTC 19 January 2019
Temperature: 4.0°C (39°F)
Dewpoint: 3.0°C (37°F) [RH = 93%]
Pressure (altimeter): 30.01 inches Hg (1016.3 mb)
Winds: calm
Visibility: 1.25 miles (2.01 km)
Ceiling: 200 feet AGL
Clouds: overcast cloud deck at 200 feet AGL
Weather: BR  (mist)

METAR text: KMWH 191231Z AUTO 00000KT 2 1/2SM BR OVC003 04/03 A3001 RMK AO2 T00390033
Conditions at: KMWH (MOSES LAKE , WA, US) observed 1231 UTC 19 January 2019
Temperature: 3.9°C (39°F)
Dewpoint: 3.3°C (38°F) [RH = 96%]
Pressure (altimeter): 30.01 inches Hg (1016.3 mb)
Winds: calm
Visibility: 2.50 miles (4.02 km)
Ceiling: 300 feet AGL
Clouds: overcast cloud deck at 300 feet AGL
Weather: BR  (mist)

METAR text: KMWH 191152Z AUTO 00000KT 9SM OVC004 04/03 A3001 RMK AO2 SLP169 60006 70008 T00390028 10044 20028 55010
Conditions at: KMWH (MOSES LAKE , WA, US) observed 1152 UTC 19 January 2019
Temperature: 3.9°C (39°F)
Dewpoint: 2.8°C (37°F) [RH = 93%]
Pressure (altimeter): 30.01 inches Hg (1016.3 mb)
[Sea-level pressure: 1016.9 mb]
Winds: calm
Visibility: 9 miles (14 km)
Ceiling: 400 feet AGL
Clouds: overcast cloud deck at 400 feet AGL
Weather: automated observation with no human augmentation;
there may or may not be significant weather present at this time

METAR text: KMWH 191143Z AUTO 00000KT 9SM OVC004 04/04 A3001 RMK AO2 T00390039
Conditions at: KMWH (MOSES LAKE , WA, US) observed 1143 UTC 19 January 2019
Temperature: 3.9°C (39°F)
Dewpoint: 3.9°C (39°F) [RH = 100%]
Pressure (altimeter): 30.01 inches Hg (1016.3 mb)
Winds: calm
Visibility: 9 miles (14 km)
Ceiling: 400 feet AGL
Clouds: overcast cloud deck at 400 feet AGL
Weather: automated observation with no human augmentation;
there may or may not be significant weather present at this time

METAR text: KMWH 191052Z AUTO 17003KT 10SM OVC005 04/03 A3001 RMK AO2 SLP168 T00390033
Conditions at: KMWH (MOSES LAKE , WA, US) observed 1052 UTC 19 January 2019
Temperature: 3.9°C (39°F)
Dewpoint: 3.3°C (38°F) [RH = 96%]
Pressure (altimeter): 30.01 inches Hg (1016.3 mb)
[Sea-level pressure: 1016.8 mb]
Winds: from the S (170 degrees) at 3 MPH (3 knots; 1.5 m/s)
Visibility: 10 or more miles (16+ km)
Ceiling: 500 feet AGL
Clouds: overcast cloud deck at 500 feet AGL
Weather: automated observation with no human augmentation;
there may or may not be significant weather present at this time

METAR text: KMWH 190952Z AUTO 06003KT 8SM BKN006 OVC011 04/03 A3001 RMK AO2 RAB0859E49 CIG 006V009 SLP169 P0002 T00390028
Conditions at: KMWH (MOSES LAKE , WA, US) observed 0952 UTC 19 January 2019
Temperature: 3.9°C (39°F)
Dewpoint: 2.8°C (37°F) [RH = 93%]
Pressure (altimeter): 30.01 inches Hg (1016.3 mb)
[Sea-level pressure: 1016.9 mb]
Winds: from the ENE (60 degrees) at 3 MPH (3 knots; 1.5 m/s)
Visibility: 8 miles (13 km)
Ceiling: 600 feet AGL
Clouds: broken clouds at 600 feet AGL
overcast cloud deck at 1100 feet AGL
Weather: automated observation with no human augmentation;
there may or may not be significant weather present at this time

METAR text: KMWH 190943Z AUTO 05005KT 8SM -RA OVC009 04/03 A3000 RMK AO2 RAB0859 CIG 007V013 P0002 T00390028
Conditions at: KMWH (MOSES LAKE , WA, US) observed 0943 UTC 19 January 2019
Temperature: 3.9°C (39°F)
Dewpoint: 2.8°C (37°F) [RH = 93%]
Pressure (altimeter): 30.00 inches Hg (1016.0 mb)
Winds: from the NE (50 degrees) at 6 MPH (5 knots; 2.6 m/s)
Visibility: 8 miles (13 km)
Ceiling: 900 feet AGL
Clouds: overcast cloud deck at 900 feet AGL
Weather: -RA  (light rain)

METAR text: KMWH 190852Z AUTO 36004KT 10SM OVC013 03/03 A3004 RMK AO2 RAE09 SLP181 P0000 60004 T00330028 55008
Conditions at: KMWH (MOSES LAKE , WA, US) observed 0852 UTC 19 January 2019
Temperature: 3.3°C (38°F)
Dewpoint: 2.8°C (37°F) [RH = 97%]
Pressure (altimeter): 30.04 inches Hg (1017.4 mb)
[Sea-level pressure: 1018.1 mb]
Winds: from the N (360 degrees) at 5 MPH (4 knots; 2.1 m/s)
Visibility: 10 or more miles (16+ km)
Ceiling: 1300 feet AGL
Clouds: overcast cloud deck at 1300 feet AGL
Weather: automated observation with no human augmentation;
there may or may not be significant weather present at this time

METAR text: KMWH 190752Z AUTO 09009KT 6SM -RA BR BKN025 OVC032 03/02 A3000 RMK AO2 RAB40 PRESFR SLP167 P0001 T00330022 400781011
Conditions at: KMWH (MOSES LAKE , WA, US) observed 0752 UTC 19 January 2019
Temperature: 3.3°C (38°F)
Dewpoint: 2.2°C (36°F) [RH = 92%]
Pressure (altimeter): 30.00 inches Hg (1016.0 mb)
[Sea-level pressure: 1016.7 mb]
Winds: from the E (90 degrees) at 10 MPH (9 knots; 4.6 m/s)
Visibility: 6 miles (10 km)
Ceiling: 2500 feet AGL
Clouds: broken clouds at 2500 feet AGL
overcast cloud deck at 3200 feet AGL
Weather: -RA BR  (light rain, mist)

METAR text: KMWH 190652Z AUTO 00000KT 10SM BKN019 OVC025 03/02 A3007 RMK AO2 UPE0557RAB0557E37 SLP191 P0003 T00330022
Conditions at: KMWH (MOSES LAKE , WA, US) observed 0652 UTC 19 January 2019
Temperature: 3.3°C (38°F)
Dewpoint: 2.2°C (36°F) [RH = 92%]
Pressure (altimeter): 30.07 inches Hg (1018.4 mb)
[Sea-level pressure: 1019.1 mb]
Winds: calm
Visibility: 10 or more miles (16+ km)
Ceiling: 1900 feet AGL
Clouds: broken clouds at 1900 feet AGL
overcast cloud deck at 2500 feet AGL
Weather: automated observation with no human augmentation;
there may or may not be significant weather present at this time

METAR text: KMWH 190600Z AUTO 00000KT 8SM -RA BKN020 OVC037 03/02 A3007 RMK AO2 UPE0557RAB0557 P0001 T00280017
Conditions at: KMWH (MOSES LAKE , WA, US) observed 0600 UTC 19 January 2019
Temperature: 2.8°C (37°F)
Dewpoint: 1.7°C (35°F) [RH = 92%]
Pressure (altimeter): 30.07 inches Hg (1018.4 mb)
Winds: calm
Visibility: 8 miles (13 km)
Ceiling: 2000 feet AGL
Clouds: broken clouds at 2000 feet AGL
overcast cloud deck at 3700 feet AGL
Weather: -RA  (light rain)

METAR text: KMWH 190552Z AUTO 00000KT 10SM UP SCT020 OVC039 03/02 A3007 RMK AO2 RAE52UPB02E08B52 SLP191 P0002 60002 T00280022 10072 20028 58014
Conditions at: KMWH (MOSES LAKE , WA, US) observed 0552 UTC 19 January 2019
Temperature: 2.8°C (37°F)
Dewpoint: 2.2°C (36°F) [RH = 96%]
Pressure (altimeter): 30.07 inches Hg (1018.4 mb)
[Sea-level pressure: 1019.1 mb]
Winds: calm
Visibility: 10 or more miles (16+ km)
Ceiling: 3900 feet AGL
Clouds: scattered clouds at 2000 feet AGL
overcast cloud deck at 3900 feet AGL
Weather: UP  (unknown precipitation)

METAR text: KMWH 190452Z 34003KT 10SM -RA OVC045 03/02 A3009 RMK AO2 RAB21UPB27E28 SLP200 P0000 T00280017
Conditions at: KMWH (MOSES LAKE , WA, US) observed 0452 UTC 19 January 2019
Temperature: 2.8°C (37°F)
Dewpoint: 1.7°C (35°F) [RH = 92%]
Pressure (altimeter): 30.09 inches Hg (1019.0 mb)
[Sea-level pressure: 1020.0 mb]
Winds: from the NNW (340 degrees) at 3 MPH (3 knots; 1.5 m/s)
Visibility: 10 or more miles (16+ km)
Ceiling: 4500 feet AGL
Clouds: overcast cloud deck at 4500 feet AGL
Weather: -RA  (light rain)

METAR text: KMWH 190352Z 31004KT 10SM OVC055 03/02 A3010 RMK AO2 SLP205 T00330017
Conditions at: KMWH (MOSES LAKE , WA, US) observed 0352 UTC 19 January 2019
Temperature: 3.3°C (38°F)
Dewpoint: 1.7°C (35°F) [RH = 89%]
Pressure (altimeter): 30.10 inches Hg (1019.4 mb)
[Sea-level pressure: 1020.5 mb]
Winds: from the NW (310 degrees) at 5 MPH (4 knots; 2.1 m/s)
Visibility: 10 or more miles (16+ km)
Ceiling: 5500 feet AGL
Clouds: overcast cloud deck at 5500 feet AGL
Weather: no significant weather observed at this time

METAR text: KMWH 190252Z 00000KT 10SM BKN075 OVC085 03/02 A3011 RMK AO2 SLP206 T00280017 56012
Conditions at: KMWH (MOSES LAKE , WA, US) observed 0252 UTC 19 January 2019
Temperature: 2.8°C (37°F)
Dewpoint: 1.7°C (35°F) [RH = 92%]
Pressure (altimeter): 30.11 inches Hg (1019.7 mb)
[Sea-level pressure: 1020.6 mb]
Winds: calm
Visibility: 10 or more miles (16+ km)
Ceiling: 7500 feet AGL
Clouds: broken clouds at 7500 feet AGL
overcast cloud deck at 8500 feet AGL
Weather: no significant weather observed at this time

METAR text: KMWH 190152Z 02004KT 10SM OVC110 03/02 A3011 RMK AO2 SLP207 T00330017
Conditions at: KMWH (MOSES LAKE , WA, US) observed 0152 UTC 19 January 2019
Temperature: 3.3°C (38°F)
Dewpoint: 1.7°C (35°F) [RH = 89%]
Pressure (altimeter): 30.11 inches Hg (1019.7 mb)
[Sea-level pressure: 1020.7 mb]
Winds: from the NNE (20 degrees) at 5 MPH (4 knots; 2.1 m/s)
Visibility: 10 or more miles (16+ km)
Ceiling: 11000 feet AGL
Clouds: overcast cloud deck at 11000 feet AGL
Weather: no significant weather observed at this time

METAR text: KMWH 190052Z 00000KT 10SM CLR 04/02 A3012 RMK AO2 SLP211 T00390017
Conditions at: KMWH (MOSES LAKE , WA, US) observed 0052 UTC 19 January 2019
Temperature: 3.9°C (39°F)
Dewpoint: 1.7°C (35°F) [RH = 86%]
Pressure (altimeter): 30.12 inches Hg (1020.1 mb)
[Sea-level pressure: 1021.1 mb]
Winds: calm
Visibility: 10 or more miles (16+ km)
Ceiling: at least 12,000 feet AGL
Clouds: sky clear below 12,000 feet AGL
Weather: no significant weather observed at this time

METAR text: KMWH 182352Z 15005KT 10SM CLR 07/03 A3014 RMK AO2 SLP216 T00720033 10078 20022 55007
Conditions at: KMWH (MOSES LAKE , WA, US) observed 2352 UTC 18 January 2019
Temperature: 7.2°C (45°F)
Dewpoint: 3.3°C (38°F) [RH = 76%]
Pressure (altimeter): 30.14 inches Hg (1020.7 mb)
[Sea-level pressure: 1021.6 mb]
Winds: from the SSE (150 degrees) at 6 MPH (5 knots; 2.6 m/s)
Visibility: 10 or more miles (16+ km)
Ceiling: at least 12,000 feet AGL
Clouds: sky clear below 12,000 feet AGL
Weather: no significant weather observed at this time

METAR text: KMWH 182252Z 16008KT 10SM CLR 07/03 A3014 RMK AO2 SLP214 T00720028
Conditions at: KMWH (MOSES LAKE , WA, US) observed 2252 UTC 18 January 2019
Temperature: 7.2°C (45°F)
Dewpoint: 2.8°C (37°F) [RH = 74%]
Pressure (altimeter): 30.14 inches Hg (1020.7 mb)
[Sea-level pressure: 1021.4 mb]
Winds: from the SSE (160 degrees) at 9 MPH (8 knots; 4.1 m/s)
Visibility: 10 or more miles (16+ km)
Ceiling: at least 12,000 feet AGL
Clouds: sky clear below 12,000 feet AGL
Weather: no significant weather observed at this time

METAR text: KMWH 182152Z 18006KT 10SM CLR 07/03 A3014 RMK AO2 SLP215 T00720028
Conditions at: KMWH (MOSES LAKE , WA, US) observed 2152 UTC 18 January 2019
Temperature: 7.2°C (45°F)
Dewpoint: 2.8°C (37°F) [RH = 74%]
Pressure (altimeter): 30.14 inches Hg (1020.7 mb)
[Sea-level pressure: 1021.5 mb]
Winds: from the S (180 degrees) at 7 MPH (6 knots; 3.1 m/s)
Visibility: 10 or more miles (16+ km)
Ceiling: at least 12,000 feet AGL
Clouds: sky clear below 12,000 feet AGL
Weather: no significant weather observed at this time

METAR text: KMWH 182052Z 20009KT 10SM CLR 06/03 A3017 RMK AO2 SLP223 T00610028 50002
Conditions at: KMWH (MOSES LAKE , WA, US) observed 2052 UTC 18 January 2019
Temperature: 6.1°C (43°F)
Dewpoint: 2.8°C (37°F) [RH = 79%]
Pressure (altimeter): 30.17 inches Hg (1021.8 mb)
[Sea-level pressure: 1022.3 mb]
Winds: from the SSW (200 degrees) at 10 MPH (9 knots; 4.6 m/s)
Visibility: 10 or more miles (16+ km)
Ceiling: at least 12,000 feet AGL
Clouds: sky clear below 12,000 feet AGL
Weather: no significant weather observed at this time

METAR text: KMWH 181952Z 19004KT 10SM CLR 05/02 A3017 RMK AO2 SLP226 T00500022
Conditions at: KMWH (MOSES LAKE , WA, US) observed 1952 UTC 18 January 2019
Temperature: 5.0°C (41°F)
Dewpoint: 2.2°C (36°F) [RH = 82%]
Pressure (altimeter): 30.17 inches Hg (1021.8 mb)
[Sea-level pressure: 1022.6 mb]
Winds: from the S (190 degrees) at 5 MPH (4 knots; 2.1 m/s)
Visibility: 10 or more miles (16+ km)
Ceiling: at least 12,000 feet AGL
Clouds: sky clear below 12,000 feet AGL
Weather: no significant weather observed at this time

METAR text: KMWH 181852Z 12007KT 10SM CLR 03/02 A3017 RMK AO2 SLP227 T00330017
Conditions at: KMWH (MOSES LAKE , WA, US) observed 1852 UTC 18 January 2019
Temperature: 3.3°C (38°F)
Dewpoint: 1.7°C (35°F) [RH = 89%]
Pressure (altimeter): 30.17 inches Hg (1021.8 mb)
[Sea-level pressure: 1022.7 mb]
Winds: from the ESE (120 degrees) at 8 MPH (7 knots; 3.6 m/s)
Visibility: 10 or more miles (16+ km)
Ceiling: at least 12,000 feet AGL
Clouds: sky clear below 12,000 feet AGL
Weather: no significant weather observed at this time

METAR text: KMWH 181752Z 13006KT 10SM SCT120 02/01 A3016 RMK AO2 SLP223 T00220006 10022 21011 53025
Conditions at: KMWH (MOSES LAKE , WA, US) observed 1752 UTC 18 January 2019
Temperature: 2.2°C (36°F)
Dewpoint: 0.6°C (33°F) [RH = 89%]
Pressure (altimeter): 30.16 inches Hg (1021.4 mb)
[Sea-level pressure: 1022.3 mb]
Winds: from the SE (130 degrees) at 7 MPH (6 knots; 3.1 m/s)
Visibility: 10 or more miles (16+ km)
Ceiling: at least 12,000 feet AGL
Clouds: scattered clouds at 12000 feet AGL
Weather: no significant weather observed at this time

METAR text: KMWH 181652Z 14004KT 10SM BKN110 01/00 A3013 RMK AO2 SLP212 T00110000
Conditions at: KMWH (MOSES LAKE , WA, US) observed 1652 UTC 18 January 2019
Temperature: 1.1°C (34°F)
Dewpoint: 0.0°C (32°F) [RH = 92%]
Pressure (altimeter): 30.13 inches Hg (1020.4 mb)
[Sea-level pressure: 1021.2 mb]
Winds: from the SE (140 degrees) at 5 MPH (4 knots; 2.1 m/s)
Visibility: 10 or more miles (16+ km)
Ceiling: 11000 feet AGL
Clouds: broken clouds at 11000 feet AGL
Weather: no significant weather observed at this time

METAR text: KMWH 181552Z 00000KT 6SM BR CLR M01/M02 A3010 RMK AO2 SLP204 T10061017
Conditions at: KMWH (MOSES LAKE , WA, US) observed 1552 UTC 18 January 2019
Temperature: -0.6°C (31°F)
Dewpoint: -1.7°C (29°F) [RH = 92%]
Pressure (altimeter): 30.10 inches Hg (1019.4 mb)
[Sea-level pressure: 1020.4 mb]
Winds: calm
Visibility: 6 miles (10 km)
Ceiling: at least 12,000 feet AGL
Clouds: sky clear below 12,000 feet AGL
Weather: BR  (mist)

METAR text: KMWH 181452Z 15004KT 9SM FEW100 00/M01 A3008 RMK AO2 SLP198 T00001006 53026
Conditions at: KMWH (MOSES LAKE , WA, US) observed 1452 UTC 18 January 2019
Temperature: 0.0°C (32°F)
Dewpoint: -0.6°C (31°F) [RH = 96%]
Pressure (altimeter): 30.08 inches Hg (1018.7 mb)
[Sea-level pressure: 1019.8 mb]
Winds: from the SSE (150 degrees) at 5 MPH (4 knots; 2.1 m/s)
Visibility: 9 miles (14 km)
Ceiling: at least 12,000 feet AGL
Clouds: few clouds at 10000 feet AGL
Weather: no significant weather observed at this time

METAR text: KMWH 181352Z 20004KT 9SM OVC095 01/00 A3005 RMK AO2 SLP187 T00110000
Conditions at: KMWH (MOSES LAKE , WA, US) observed 1352 UTC 18 January 2019
Temperature: 1.1°C (34°F)
Dewpoint: 0.0°C (32°F) [RH = 92%]
Pressure (altimeter): 30.05 inches Hg (1017.7 mb)
[Sea-level pressure: 1018.7 mb]
Winds: from the SSW (200 degrees) at 5 MPH (4 knots; 2.1 m/s)
Visibility: 9 miles (14 km)
Ceiling: 9500 feet AGL
Clouds: overcast cloud deck at 9500 feet AGL
Weather: no significant weather observed at this time

METAR text: KMWH 181252Z AUTO 00000KT 9SM SCT075 01/00 A3002 RMK AO2 SLP177 T00060000
Conditions at: KMWH (MOSES LAKE , WA, US) observed 1252 UTC 18 January 2019
Temperature: 0.6°C (33°F)
Dewpoint: 0.0°C (32°F) [RH = 96%]
Pressure (altimeter): 30.02 inches Hg (1016.7 mb)
[Sea-level pressure: 1017.7 mb]
Winds: calm
Visibility: 9 miles (14 km)
Ceiling: at least 12,000 feet AGL
Clouds: scattered clouds at 7500 feet AGL
Weather: automated observation with no human augmentation;
there may or may not be significant weather present at this time

METAR text: KMWH 181152Z AUTO 00000KT 7SM CLR 01/00 A3000 RMK AO2 SLP170 70029 T00060000 10028 20006 51024
Conditions at: KMWH (MOSES LAKE , WA, US) observed 1152 UTC 18 January 2019
Temperature: 0.6°C (33°F)
Dewpoint: 0.0°C (32°F) [RH = 96%]
Pressure (altimeter): 30.00 inches Hg (1016.0 mb)
[Sea-level pressure: 1017.0 mb]
Winds: calm
Visibility: 7 miles (11 km)
Ceiling: at least 12,000 feet AGL
Clouds: sky clear below 12,000 feet AGL
Weather: automated observation with no human augmentation;
there may or may not be significant weather present at this time

METAR text: KMWH 181052Z AUTO 18006KT 6SM BR SCT110 02/01 A2998 RMK AO2 SLP162 T00170006
Conditions at: KMWH (MOSES LAKE , WA, US) observed 1052 UTC 18 January 2019
Temperature: 1.7°C (35°F)
Dewpoint: 0.6°C (33°F) [RH = 92%]
Pressure (altimeter): 29.98 inches Hg (1015.3 mb)
[Sea-level pressure: 1016.2 mb]
Winds: from the S (180 degrees) at 7 MPH (6 knots; 3.1 m/s)
Visibility: 6 miles (10 km)
Ceiling: at least 12,000 feet AGL
Clouds: scattered clouds at 11000 feet AGL
Weather: BR  (mist)

METAR text: KMWH 180952Z AUTO 17006KT 4SM BR BKN110 02/01 A2996 RMK AO2 SLP155 T00170011
Conditions at: KMWH (MOSES LAKE , WA, US) observed 0952 UTC 18 January 2019
Temperature: 1.7°C (35°F)
Dewpoint: 1.1°C (34°F) [RH = 96%]
Pressure (altimeter): 29.96 inches Hg (1014.6 mb)
[Sea-level pressure: 1015.5 mb]
Winds: from the S (170 degrees) at 7 MPH (6 knots; 3.1 m/s)
Visibility: 4 miles ( 6 km)
Ceiling: 11000 feet AGL
Clouds: broken clouds at 11000 feet AGL
Weather: BR  (mist)

METAR text: KMWH 180938Z AUTO 17006KT 4SM BR SCT003 BKN110 02/01 A2995 RMK AO2 T00170011
Conditions at: KMWH (MOSES LAKE , WA, US) observed 0938 UTC 18 January 2019
Temperature: 1.7°C (35°F)
Dewpoint: 1.1°C (34°F) [RH = 96%]
Pressure (altimeter): 29.95 inches Hg (1014.3 mb)
Winds: from the S (170 degrees) at 7 MPH (6 knots; 3.1 m/s)
Visibility: 4 miles ( 6 km)
Ceiling: 11000 feet AGL
Clouds: scattered clouds at 300 feet AGL
broken clouds at 11000 feet AGL
Weather: BR  (mist)

METAR text: KMWH 180852Z AUTO 16006KT 4SM BR OVC003 02/01 A2993 RMK AO2 SLP145 T00220011 51022
Conditions at: KMWH (MOSES LAKE , WA, US) observed 0852 UTC 18 January 2019
Temperature: 2.2°C (36°F)
Dewpoint: 1.1°C (34°F) [RH = 92%]
Pressure (altimeter): 29.93 inches Hg (1013.6 mb)
[Sea-level pressure: 1014.5 mb]
Winds: from the SSE (160 degrees) at 7 MPH (6 knots; 3.1 m/s)
Visibility: 4 miles ( 6 km)
Ceiling: 300 feet AGL
Clouds: overcast cloud deck at 300 feet AGL
Weather: BR  (mist)

METAR text: KMWH 180752Z AUTO 16008KT 5SM BR OVC004 03/02 A2991 RMK AO2 SLP136 T00280017 400440011
Conditions at: KMWH (MOSES LAKE , WA, US) observed 0752 UTC 18 January 2019
Temperature: 2.8°C (37°F)
Dewpoint: 1.7°C (35°F) [RH = 92%]
Pressure (altimeter): 29.91 inches Hg (1013.0 mb)
[Sea-level pressure: 1013.6 mb]
Winds: from the SSE (160 degrees) at 9 MPH (8 knots; 4.1 m/s)
Visibility: 5 miles ( 8 km)
Ceiling: 400 feet AGL
Clouds: overcast cloud deck at 400 feet AGL
Weather: BR  (mist)

METAR text: KMWH 180728Z AUTO 16008KT 6SM BR OVC004 03/02 A2990 RMK AO2 T00280017
Conditions at: KMWH (MOSES LAKE , WA, US) observed 0728 UTC 18 January 2019
Temperature: 2.8°C (37°F)
Dewpoint: 1.7°C (35°F) [RH = 92%]
Pressure (altimeter): 29.90 inches Hg (1012.6 mb)
Winds: from the SSE (160 degrees) at 9 MPH (8 knots; 4.1 m/s)
Visibility: 6 miles (10 km)
Ceiling: 400 feet AGL
Clouds: overcast cloud deck at 400 feet AGL
Weather: BR  (mist)

METAR text: KMWH 180652Z AUTO 16007KT 7SM OVC005 03/02 A2989 RMK AO2 SLP131 T00280017
Conditions at: KMWH (MOSES LAKE , WA, US) observed 0652 UTC 18 January 2019
Temperature: 2.8°C (37°F)
Dewpoint: 1.7°C (35°F) [RH = 92%]
Pressure (altimeter): 29.89 inches Hg (1012.3 mb)
[Sea-level pressure: 1013.1 mb]
Winds: from the SSE (160 degrees) at 8 MPH (7 knots; 3.6 m/s)
Visibility: 7 miles (11 km)
Ceiling: 500 feet AGL
Clouds: overcast cloud deck at 500 feet AGL
Weather: automated observation with no human augmentation;
there may or may not be significant weather present at this time

METAR text: KMWH 180637Z AUTO 16009KT 7SM OVC005 03/02 A2988 RMK AO2 T00280017
Conditions at: KMWH (MOSES LAKE , WA, US) observed 0637 UTC 18 January 2019
Temperature: 2.8°C (37°F)
Dewpoint: 1.7°C (35°F) [RH = 92%]
Pressure (altimeter): 29.88 inches Hg (1011.9 mb)
Winds: from the SSE (160 degrees) at 10 MPH (9 knots; 4.6 m/s)
Visibility: 7 miles (11 km)
Ceiling: 500 feet AGL
Clouds: overcast cloud deck at 500 feet AGL
Weather: automated observation with no human augmentation;
there may or may not be significant weather present at this time

METAR text: KMWH 180601Z AUTO 16008KT 7SM OVC004 03/02 A2986 RMK AO2 T00280017
Conditions at: KMWH (MOSES LAKE , WA, US) observed 0601 UTC 18 January 2019
Temperature: 2.8°C (37°F)
Dewpoint: 1.7°C (35°F) [RH = 92%]
Pressure (altimeter): 29.86 inches Hg (1011.3 mb)
Winds: from the SSE (160 degrees) at 9 MPH (8 knots; 4.1 m/s)
Visibility: 7 miles (11 km)
Ceiling: 400 feet AGL
Clouds: overcast cloud deck at 400 feet AGL
Weather: automated observation with no human augmentation;
there may or may not be significant weather present at this time

METAR text: KMWH 180552Z AUTO 16007KT 7SM OVC005 03/02 A2986 RMK AO2 SLP121 T00280017 10044 20028 53029
Conditions at: KMWH (MOSES LAKE , WA, US) observed 0552 UTC 18 January 2019
Temperature: 2.8°C (37°F)
Dewpoint: 1.7°C (35°F) [RH = 92%]
Pressure (altimeter): 29.86 inches Hg (1011.3 mb)
[Sea-level pressure: 1012.1 mb]
Winds: from the SSE (160 degrees) at 8 MPH (7 knots; 3.6 m/s)
Visibility: 7 miles (11 km)
Ceiling: 500 feet AGL
Clouds: overcast cloud deck at 500 feet AGL
Weather: automated observation with no human augmentation;
there may or may not be significant weather present at this time

METAR text: KMWH 180502Z AUTO 16008KT 8SM BKN005 OVC011 03/02 A2984 RMK AO2 T00280017
Conditions at: KMWH (MOSES LAKE , WA, US) observed 0502 UTC 18 January 2019
Temperature: 2.8°C (37°F)
Dewpoint: 1.7°C (35°F) [RH = 92%]
Pressure (altimeter): 29.84 inches Hg (1010.6 mb)
Winds: from the SSE (160 degrees) at 9 MPH (8 knots; 4.1 m/s)
Visibility: 8 miles (13 km)
Ceiling: 500 feet AGL
Clouds: broken clouds at 500 feet AGL
overcast cloud deck at 1100 feet AGL
Weather: automated observation with no human augmentation;
there may or may not be significant weather present at this time

METAR text: KMWH 180452Z 17007KT 8SM SCT005 OVC011 03/02 A2983 RMK AO2 SLP112 T00280017
Conditions at: KMWH (MOSES LAKE , WA, US) observed 0452 UTC 18 January 2019
Temperature: 2.8°C (37°F)
Dewpoint: 1.7°C (35°F) [RH = 92%]
Pressure (altimeter): 29.83 inches Hg (1010.2 mb)
[Sea-level pressure: 1011.2 mb]
Winds: from the S (170 degrees) at 8 MPH (7 knots; 3.6 m/s)
Visibility: 8 miles (13 km)
Ceiling: 1100 feet AGL
Clouds: scattered clouds at 500 feet AGL
overcast cloud deck at 1100 feet AGL
Weather: no significant weather observed at this time

METAR text: KMWH 180442Z 17008KT 9SM FEW005 OVC011 03/02 A2983 RMK AO2 T00280017
Conditions at: KMWH (MOSES LAKE , WA, US) observed 0442 UTC 18 January 2019
Temperature: 2.8°C (37°F)
Dewpoint: 1.7°C (35°F) [RH = 92%]
Pressure (altimeter): 29.83 inches Hg (1010.2 mb)
Winds: from the S (170 degrees) at 9 MPH (8 knots; 4.1 m/s)
Visibility: 9 miles (14 km)
Ceiling: 1100 feet AGL
Clouds: few clouds at 500 feet AGL
overcast cloud deck at 1100 feet AGL
Weather: no significant weather observed at this time

METAR text: KMWH 180352Z 15005KT 10SM OVC006 03/02 A2980 RMK AO2 SLP101 T00330017
Conditions at: KMWH (MOSES LAKE , WA, US) observed 0352 UTC 18 January 2019
Temperature: 3.3°C (38°F)
Dewpoint: 1.7°C (35°F) [RH = 89%]
Pressure (altimeter): 29.80 inches Hg (1009.2 mb)
[Sea-level pressure: 1010.1 mb]
Winds: from the SSE (150 degrees) at 6 MPH (5 knots; 2.6 m/s)
Visibility: 10 or more miles (16+ km)
Ceiling: 600 feet AGL
Clouds: overcast cloud deck at 600 feet AGL
Weather: no significant weather observed at this time

METAR text: KMWH 180330Z 14005KT 10SM OVC009 03/02 A2979 RMK AO2 CIG 007V011 T00280022
Conditions at: KMWH (MOSES LAKE , WA, US) observed 0330 UTC 18 January 2019
Temperature: 2.8°C (37°F)
Dewpoint: 2.2°C (36°F) [RH = 96%]
Pressure (altimeter): 29.79 inches Hg (1008.9 mb)
Winds: from the SE (140 degrees) at 6 MPH (5 knots; 2.6 m/s)
Visibility: 10 or more miles (16+ km)
Ceiling: 900 feet AGL
Clouds: overcast cloud deck at 900 feet AGL
Weather: no significant weather observed at this time

METAR text: KMWH 180252Z 13005KT 10SM OVC012 03/02 A2977 RMK AO2 SLP091 T00330017 51019
Conditions at: KMWH (MOSES LAKE , WA, US) observed 0252 UTC 18 January 2019
Temperature: 3.3°C (38°F)
Dewpoint: 1.7°C (35°F) [RH = 89%]
Pressure (altimeter): 29.77 inches Hg (1008.2 mb)
[Sea-level pressure: 1009.1 mb]
Winds: from the SE (130 degrees) at 6 MPH (5 knots; 2.6 m/s)
Visibility: 10 or more miles (16+ km)
Ceiling: 1200 feet AGL
Clouds: overcast cloud deck at 1200 feet AGL
Weather: no significant weather observed at this time

Forecast for: KMWH (MOSES LAKE , WA, US)
Text: KMWH 191303Z 1913/2012 00000KT 1SM BR OVC002
Forecast period: 1300 to 1600 UTC 19 January 2019
Forecast type: FROM: standard forecast or significant change
Winds: calm
Visibility: 1.00 miles (1.61 km)
Ceiling: 200 feet AGL
Clouds: overcast cloud deck at 200 feet AGL
Weather: BR  (mist)
Text: FM191600 19005KT 4SM BR OVC004
Forecast period: 1600 to 1800 UTC 19 January 2019
Forecast type: FROM: standard forecast or significant change
Winds: from the S (190 degrees) at 6 MPH (5 knots; 2.6 m/s)
Visibility: 4 miles (6 km)
Ceiling: 400 feet AGL
Clouds: overcast cloud deck at 400 feet AGL
Weather: BR  (mist)
Text: FM191800 21006KT P6SM BKN008 OVC200
Forecast period: 1800 to 1900 UTC 19 January 2019
Forecast type: FROM: standard forecast or significant change
Winds: from the SSW (210 degrees) at 7 MPH (6 knots; 3.1 m/s)
Visibility: 6 or more miles 10+ km)
Ceiling: 800 feet AGL
Clouds: broken clouds at 800 feet AGL
overcast cloud deck at 20000 feet AGL
Weather: no significant weather forecast for this period
Text: FM191900 21007KT P6SM OVC200
Forecast period: 1900 UTC 19 January 2019 to 0900 UTC 20 January 2019
Forecast type: FROM: standard forecast or significant change
Winds: from the SSW (210 degrees) at 8 MPH (7 knots; 3.6 m/s)
Visibility: 6 or more miles 10+ km)
Ceiling: 20000 feet AGL
Clouds: overcast cloud deck at 20000 feet AGL
Weather: no significant weather forecast for this period
Text: FM200900 36005KT 6SM BR BKN008
Forecast period: 0900 to 1200 UTC 20 January 2019
Forecast type: FROM: standard forecast or significant change
Winds: from the N (360 degrees) at 6 MPH (5 knots; 2.6 m/s)
Visibility: 6 miles (10 km)
Ceiling: 800 feet AGL
Clouds: broken clouds at 800 feet AGL
Weather: BR  (mist)